Time;durP1;ratioP1;P1;durP2;ratioP2;P2;SDS_P1;SDS_P2;PMS_P1;PMS_P2;Temp;Humidity;BMP_temperature;BMP_pressure;BME280_temperature;BME280_humidity;BME280_pressure;Samples;Min_cycle;Max_cycle;Signal;HPM_P1;HPM_P2
2022/03/30 00:00:10;;;;;;;;;;;7.40;99.90;;;;;;5034241;28;19921;-82
2022/03/30 00:02:36;;;;;;;;;;;7.40;99.90;;;;;;5034347;28;19925;-82
2022/03/30 00:05:02;;;;;;;;;;;7.40;99.90;;;;;;5033246;28;19921;-82
2022/03/30 00:07:31;;;;;;;;;;;7.40;99.90;;;;;;5018198;28;19940;-82
2022/03/30 00:10:07;;;;;;;;;;;7.50;99.90;;;;;;5034451;28;19924;-82
2022/03/30 00:12:34;;;;;;;;;;;7.50;99.90;;;;;;5035040;28;19928;-82
2022/03/30 00:15:00;;;;;;;;;;;7.50;99.90;;;;;;5020229;28;20345;-82
2022/03/30 00:17:25;;;;;;;;;;;7.60;99.90;;;;;;5022375;28;20015;-81
2022/03/30 00:19:51;;;;;;;;;;;7.60;99.90;;;;;;5038160;28;20019;-82
2022/03/30 00:22:17;;;;;;;;;;;7.60;99.90;;;;;;5038361;28;19920;-82
2022/03/30 00:24:43;;;;;;;;;;;7.60;99.90;;;;;;5037954;28;20369;-82
2022/03/30 00:27:10;;;;;;;;;;;7.60;99.90;;;;;;5021958;28;20407;-82
2022/03/30 00:29:35;;;;;;;;;;;7.60;99.90;;;;;;5021894;28;19927;-82
2022/03/30 00:32:01;;;;;;;;;;;7.60;99.90;;;;;;5037637;28;19920;-81
2022/03/30 00:34:26;;;;;;;;;;;7.50;99.90;;;;;;5021180;28;19924;-82
2022/03/30 00:36:52;;;;;;;;;;;7.50;99.90;;;;;;5005145;28;19975;-83
2022/03/30 00:39:18;;;;;;;;;;;7.40;99.90;;;;;;5038067;28;19931;-82
2022/03/30 00:41:44;;;;;;;;;;;7.40;99.90;;;;;;5002247;28;19928;-82
2022/03/30 00:44:10;;;;;;;;;;;7.30;99.90;;;;;;5027271;28;19929;-82
2022/03/30 00:46:35;;;;;;;;;;;7.30;99.90;;;;;;5033906;28;19966;-82
2022/03/30 00:49:02;;;;;;;;;;;7.20;99.90;;;;;;5017901;28;19929;-82
2022/03/30 00:51:27;;;;;;;;;;;7.20;99.90;;;;;;5021691;28;19940;-82
2022/03/30 00:53:53;;;;;;;;;;;7.20;99.90;;;;;;5019360;28;19920;-83
2022/03/30 00:56:19;;;;;;;;;;;7.20;99.90;;;;;;5018427;28;19921;-83
2022/03/30 00:58:44;;;;;;;;;;;7.10;99.90;;;;;;5019919;28;19920;-82
2022/03/30 01:01:11;;;;;;;;;;;7.10;99.90;;;;;;5037527;28;19928;-82
2022/03/30 01:03:37;;;;;;;;;;;7.00;99.90;;;;;;5021351;28;19920;-82
2022/03/30 01:06:03;;;;;;;;;;;7.00;99.90;;;;;;5020554;28;19928;-82
2022/03/30 01:08:28;;;;;;;;;;;7.00;99.90;;;;;;5036876;28;20024;-82
2022/03/30 01:10:54;;;;;;;;;;;7.00;99.90;;;;;;5020701;28;19929;-82
2022/03/30 01:13:19;;;;;;;;;;;7.00;99.90;;;;;;5037855;28;19932;-82
2022/03/30 01:15:45;;;;;;;;;;;6.90;99.90;;;;;;5000997;28;19928;-81
2022/03/30 01:18:10;;;;;;;;;;;6.90;99.90;;;;;;5015390;28;19970;-82
2022/03/30 01:20:37;;;;;;;;;;;6.90;99.90;;;;;;5019252;28;19921;-82
2022/03/30 01:23:03;;;;;;;;;;;6.90;99.90;;;;;;5036871;28;19933;-82
2022/03/30 01:25:28;;;;;;;;;;;6.90;99.90;;;;;;5001270;28;19921;-82
2022/03/30 01:27:54;;;;;;;;;;;6.90;99.90;;;;;;5003980;28;19921;-82
2022/03/30 01:33:05;;;;;;;;;;;6.80;99.90;;;;;;5013927;28;19921;-82
2022/03/30 01:35:31;;;;;;;;;;;6.80;99.90;;;;;;5007355;28;19937;-82
2022/03/30 01:37:56;;;;;;;;;;;6.80;99.90;;;;;;4979839;28;20358;-84
2022/03/30 01:40:22;;;;;;;;;;;6.80;99.90;;;;;;4997890;28;20467;-82
2022/03/30 01:42:48;;;;;;;;;;;6.80;99.90;;;;;;4997576;28;19929;-82
2022/03/30 01:45:15;;;;;;;;;;;6.70;99.90;;;;;;4977910;28;19957;-82
2022/03/30 01:47:52;;;;;;;;;;;6.70;99.90;;;;;;5008117;28;19921;-81
2022/03/30 01:50:17;;;;;;;;;;;6.70;99.90;;;;;;5011128;28;19961;-81
2022/03/30 01:52:43;;;;;;;;;;;6.60;99.90;;;;;;5006015;28;19972;-82
2022/03/30 01:55:08;;;;;;;;;;;6.60;99.90;;;;;;5012334;28;19921;-82
2022/03/30 01:57:34;;;;;;;;;;;6.60;99.90;;;;;;5000736;28;20382;-82
2022/03/30 02:00:03;;;;;;;;;;;6.60;99.90;;;;;;4993021;28;19921;-83
2022/03/30 02:02:29;;;;;;;;;;;6.60;99.90;;;;;;4996593;28;19921;-82
2022/03/30 02:04:55;;;;;;;;;;;6.60;99.90;;;;;;5013480;28;20009;-82
2022/03/30 02:07:20;;;;;;;;;;;6.60;99.90;;;;;;4997094;28;19925;-82
2022/03/30 02:09:46;;;;;;;;;;;6.50;99.90;;;;;;5013187;28;19921;-82
2022/03/30 02:12:11;;;;;;;;;;;6.50;99.90;;;;;;4996952;28;19922;-82
2022/03/30 02:14:37;;;;;;;;;;;6.50;99.90;;;;;;4997003;28;19971;-82
2022/03/30 02:17:03;;;;;;;;;;;6.40;99.90;;;;;;5013405;28;19929;-82
2022/03/30 02:19:29;;;;;;;;;;;6.40;99.90;;;;;;5013371;28;19927;-82
2022/03/30 02:21:54;;;;;;;;;;;6.40;99.90;;;;;;4996921;28;20428;-82
2022/03/30 02:24:20;;;;;;;;;;;6.30;99.90;;;;;;4966706;28;19977;-82
2022/03/30 02:26:47;;;;;;;;;;;6.20;99.90;;;;;;4997181;28;20011;-82
2022/03/30 02:29:13;;;;;;;;;;;6.30;99.90;;;;;;4994735;28;20023;-81
2022/03/30 02:31:39;;;;;;;;;;;6.30;99.90;;;;;;5006280;28;20369;-81
2022/03/30 02:34:05;;;;;;;;;;;6.20;99.90;;;;;;5014418;28;19920;-82
2022/03/30 02:36:30;;;;;;;;;;;6.30;99.90;;;;;;5032114;28;19921;-82
2022/03/30 02:38:56;;;;;;;;;;;6.30;99.90;;;;;;5016445;28;20425;-82
2022/03/30 02:41:22;;;;;;;;;;;6.20;99.90;;;;;;5015851;28;19921;-82
2022/03/30 02:43:48;;;;;;;;;;;6.20;99.90;;;;;;5011929;28;19932;-82
2022/03/30 02:46:13;;;;;;;;;;;6.20;99.90;;;;;;5014562;28;19921;-82
2022/03/30 02:48:40;;;;;;;;;;;6.20;99.90;;;;;;5015346;28;19925;-82
2022/03/30 02:51:06;;;;;;;;;;;6.20;99.90;;;;;;5014352;28;19937;-82
2022/03/30 02:53:33;;;;;;;;;;;6.20;99.90;;;;;;5030493;28;20007;-82
2022/03/30 02:55:58;;;;;;;;;;;6.10;99.90;;;;;;5015421;28;20335;-82
2022/03/30 02:58:24;;;;;;;;;;;6.10;99.90;;;;;;5015696;28;20016;-82
2022/03/30 03:00:50;;;;;;;;;;;6.10;99.90;;;;;;5016123;28;19921;-81
2022/03/30 03:03:16;;;;;;;;;;;6.10;99.90;;;;;;5014758;28;19925;-82
2022/03/30 03:05:42;;;;;;;;;;;6.00;99.90;;;;;;5016111;28;19967;-82
2022/03/30 03:08:10;;;;;;;;;;;6.10;99.90;;;;;;4995425;28;20004;-82
2022/03/30 03:10:36;;;;;;;;;;;6.10;99.90;;;;;;5032183;28;19925;-82
2022/03/30 03:13:03;;;;;;;;;;;6.10;99.90;;;;;;5003627;28;19921;-83
2022/03/30 03:15:29;;;;;;;;;;;6.10;99.90;;;;;;5031741;28;19921;-81
2022/03/30 03:17:55;;;;;;;;;;;6.10;99.90;;;;;;5032257;28;19944;-82
2022/03/30 03:20:21;;;;;;;;;;;6.10;99.90;;;;;;5015526;28;20345;-82
2022/03/30 03:22:46;;;;;;;;;;;6.10;99.90;;;;;;5032811;28;19920;-82
2022/03/30 03:25:12;;;;;;;;;;;6.10;99.90;;;;;;5002361;28;19951;-82
2022/03/30 03:27:38;;;;;;;;;;;6.10;99.90;;;;;;5012436;28;19925;-82
2022/03/30 03:30:07;;;;;;;;;;;6.10;99.90;;;;;;5028509;28;19921;-82
2022/03/30 03:32:32;;;;;;;;;;;6.10;99.90;;;;;;5031242;28;19925;-82
2022/03/30 03:34:58;;;;;;;;;;;6.10;99.90;;;;;;5023626;28;19925;-83
2022/03/30 03:37:24;;;;;;;;;;;6.10;99.90;;;;;;5011929;28;19925;-82
2022/03/30 03:39:49;;;;;;;;;;;6.00;99.90;;;;;;5010543;28;19921;-82
2022/03/30 03:42:16;;;;;;;;;;;6.10;99.90;;;;;;5031606;28;20385;-83
2022/03/30 03:44:41;;;;;;;;;;;6.00;99.90;;;;;;5031250;28;19956;-83
2022/03/30 03:47:09;;;;;;;;;;;6.00;99.90;;;;;;5035660;28;19972;-82
2022/03/30 03:49:35;;;;;;;;;;;6.00;99.90;;;;;;5012297;28;19921;-82
2022/03/30 03:52:01;;;;;;;;;;;6.00;99.90;;;;;;5015355;28;20008;-82
2022/03/30 03:54:27;;;;;;;;;;;6.10;99.90;;;;;;4998478;28;20078;-82
2022/03/30 03:56:52;;;;;;;;;;;6.10;99.90;;;;;;5045594;28;20364;-82
2022/03/30 03:59:18;;;;;;;;;;;6.20;99.90;;;;;;5040226;28;19925;-82
2022/03/30 04:01:44;;;;;;;;;;;6.10;99.90;;;;;;4999044;28;19928;-82
2022/03/30 04:04:09;;;;;;;;;;;6.10;99.90;;;;;;5030652;28;19921;-82
2022/03/30 04:06:35;;;;;;;;;;;6.10;99.90;;;;;;5013976;28;19970;-82
2022/03/30 04:09:01;;;;;;;;;;;6.10;99.90;;;;;;5030889;28;19921;-82
2022/03/30 04:11:26;;;;;;;;;;;6.20;99.90;;;;;;5014874;28;19921;-82
2022/03/30 04:13:52;;;;;;;;;;;6.20;99.90;;;;;;5014650;28;19921;-82
2022/03/30 04:16:17;;;;;;;;;;;6.20;99.90;;;;;;5029331;28;20294;-82
2022/03/30 04:18:43;;;;;;;;;;;6.10;99.90;;;;;;5014806;28;19936;-82
2022/03/30 04:21:09;;;;;;;;;;;6.10;99.90;;;;;;5015135;28;19921;-82
2022/03/30 04:23:35;;;;;;;;;;;6.10;99.90;;;;;;5014614;28;19931;-82
2022/03/30 04:26:01;;;;;;;;;;;6.10;99.90;;;;;;5014902;28;19921;-82
2022/03/30 04:28:26;;;;;;;;;;;6.10;99.90;;;;;;4999210;28;19970;-82
2022/03/30 04:30:52;;;;;;;;;;;6.00;99.90;;;;;;5032847;28;19927;-82
2022/03/30 04:33:18;;;;;;;;;;;6.00;99.90;;;;;;5017531;28;19931;-82
2022/03/30 04:35:43;;;;;;;;;;;6.00;99.90;;;;;;5018190;28;19921;-82
2022/03/30 04:38:09;;;;;;;;;;;5.90;99.90;;;;;;5032804;28;20027;-82
2022/03/30 04:40:35;;;;;;;;;;;5.90;99.90;;;;;;5034047;28;19921;-82
2022/03/30 04:43:00;;;;;;;;;;;5.80;99.90;;;;;;5018123;28;20354;-83
2022/03/30 04:45:26;;;;;;;;;;;5.70;99.90;;;;;;5014198;28;19921;-82
2022/03/30 04:47:55;;;;;;;;;;;5.70;99.90;;;;;;5033620;28;20004;-82
2022/03/30 04:50:20;;;;;;;;;;;5.60;99.90;;;;;;5017012;28;20012;-82
2022/03/30 04:52:46;;;;;;;;;;;5.60;99.90;;;;;;5017793;28;20007;-82
2022/03/30 04:55:12;;;;;;;;;;;5.60;99.90;;;;;;5016579;28;19921;-82
2022/03/30 04:57:38;;;;;;;;;;;5.60;99.90;;;;;;5016277;28;20357;-82
2022/03/30 05:00:04;;;;;;;;;;;5.50;99.90;;;;;;5000195;28;21538;-83
2022/03/30 05:02:32;;;;;;;;;;;5.50;99.90;;;;;;5019043;28;20011;-82
2022/03/30 05:04:58;;;;;;;;;;;5.50;99.90;;;;;;5021484;28;19921;-82
2022/03/30 05:07:24;;;;;;;;;;;5.50;99.90;;;;;;5037352;28;19935;-82
2022/03/30 05:09:49;;;;;;;;;;;5.40;99.90;;;;;;5037050;28;19921;-83
2022/03/30 05:12:15;;;;;;;;;;;5.50;99.90;;;;;;5050363;28;19975;-82
2022/03/30 05:14:41;;;;;;;;;;;5.40;99.90;;;;;;5037079;28;20361;-81
2022/03/30 05:17:08;;;;;;;;;;;5.40;99.90;;;;;;5021340;28;20011;-82
2022/03/30 05:19:34;;;;;;;;;;;5.40;99.90;;;;;;5037360;28;20292;-82
2022/03/30 05:21:59;;;;;;;;;;;5.40;99.90;;;;;;5037422;28;20003;-82
2022/03/30 05:24:25;;;;;;;;;;;5.40;99.90;;;;;;5036326;28;19920;-82
2022/03/30 05:26:53;;;;;;;;;;;5.40;99.90;;;;;;5020956;28;19987;-82
2022/03/30 05:29:18;;;;;;;;;;;5.40;99.90;;;;;;5020696;28;19924;-81
2022/03/30 05:31:45;;;;;;;;;;;5.40;99.90;;;;;;5017056;28;20396;-81
2022/03/30 05:34:11;;;;;;;;;;;5.40;99.90;;;;;;5016934;28;19925;-82
2022/03/30 05:36:36;;;;;;;;;;;5.40;99.90;;;;;;5032010;28;19944;-79
2022/03/30 05:39:02;;;;;;;;;;;5.40;99.90;;;;;;5031115;28;19921;-79
2022/03/30 05:41:28;;;;;;;;;;;5.40;99.90;;;;;;5033711;28;19948;-79
2022/03/30 05:43:53;;;;;;;;;;;5.40;99.90;;;;;;5033693;28;20023;-79
2022/03/30 05:46:19;;;;;;;;;;;5.40;99.90;;;;;;5013431;28;19921;-80
2022/03/30 05:48:44;;;;;;;;;;;5.50;99.90;;;;;;5029354;28;19927;-77
2022/03/30 05:51:10;;;;;;;;;;;5.50;99.90;;;;;;5014297;28;19971;-78
2022/03/30 05:53:36;;;;;;;;;;;5.40;99.90;;;;;;5018417;28;19956;-78
2022/03/30 05:56:02;;;;;;;;;;;5.50;99.90;;;;;;5033424;28;20258;-78
2022/03/30 05:58:27;;;;;;;;;;;5.50;99.90;;;;;;5033153;28;19921;-78
2022/03/30 06:00:53;;;;;;;;;;;5.50;99.90;;;;;;5033457;28;20362;-79
2022/03/30 06:03:18;;;;;;;;;;;5.50;99.90;;;;;;5034262;28;19921;-78
2022/03/30 06:05:44;;;;;;;;;;;5.60;99.90;;;;;;5032765;28;19964;-78
2022/03/30 06:08:10;;;;;;;;;;;5.60;99.90;;;;;;5032790;28;19975;-78
2022/03/30 06:10:36;;;;;;;;;;;5.70;99.90;;;;;;5032399;28;19929;-77
2022/03/30 06:13:02;;;;;;;;;;;5.70;99.90;;;;;;5023692;28;19936;-78
2022/03/30 06:15:28;;;;;;;;;;;5.80;99.90;;;;;;5030261;28;19925;-81
2022/03/30 06:17:55;;;;;;;;;;;5.80;99.90;;;;;;5033025;28;19970;-78
2022/03/30 06:20:24;;;;;;;;;;;5.80;99.90;;;;;;5033058;28;20011;-78
2022/03/30 06:22:53;;;;;;;;;;;5.80;99.90;;;;;;5032683;28;19921;-78
2022/03/30 06:25:24;;;;;;;;;;;5.90;99.90;;;;;;5032787;28;19920;-79
2022/03/30 06:27:49;;;;;;;;;;;5.90;99.90;;;;;;5016040;28;19921;-77
2022/03/30 06:30:15;;;;;;;;;;;5.90;99.90;;;;;;5032927;28;19970;-78
2022/03/30 06:32:41;;;;;;;;;;;6.10;99.90;;;;;;5032028;28;20374;-80
2022/03/30 06:35:07;;;;;;;;;;;6.10;99.90;;;;;;5016155;28;19921;-92
2022/03/30 06:37:32;;;;;;;;;;;6.20;99.90;;;;;;5008216;28;19940;-87
2022/03/30 06:39:58;;;;;;;;;;;6.30;99.90;;;;;;5010324;28;19925;-86
2022/03/30 06:42:23;;;;;;;;;;;6.30;99.90;;;;;;4995012;28;19956;-78
2022/03/30 06:44:49;;;;;;;;;;;6.40;99.90;;;;;;4990132;28;19925;-78
2022/03/30 06:47:15;;;;;;;;;;;6.50;99.90;;;;;;5021232;28;19922;-80
2022/03/30 06:49:40;;;;;;;;;;;6.60;99.90;;;;;;5023857;28;19963;-83
2022/03/30 06:52:07;;;;;;;;;;;6.60;99.90;;;;;;5007799;28;19921;-79
2022/03/30 06:54:34;;;;;;;;;;;6.60;99.90;;;;;;5015502;28;19921;-80
2022/03/30 06:57:00;;;;;;;;;;;6.70;99.90;;;;;;5030522;28;20003;-81
2022/03/30 06:59:26;;;;;;;;;;;6.70;99.90;;;;;;5031873;28;19921;-80
2022/03/30 07:01:53;;;;;;;;;;;6.80;99.90;;;;;;5015710;28;20020;-79
2022/03/30 07:04:19;;;;;;;;;;;6.80;99.90;;;;;;5024214;28;19968;-80
2022/03/30 07:12:13;;;;;;;;;;;6.90;99.90;;;;;;5033073;28;19936;-80
2022/03/30 07:14:39;;;;;;;;;;;7.00;99.90;;;;;;5014126;28;19921;-80
2022/03/30 07:17:05;;;;;;;;;;;7.00;99.90;;;;;;5031902;28;19924;-80
2022/03/30 07:19:30;;;;;;;;;;;7.00;99.90;;;;;;5015742;28;19972;-80
2022/03/30 07:21:56;;;;;;;;;;;6.90;99.90;;;;;;5031377;28;20000;-80
2022/03/30 07:24:21;;;;;;;;;;;6.90;99.90;;;;;;5031394;28;19921;-80
2022/03/30 07:26:47;;;;;;;;;;;6.90;99.90;;;;;;5030385;28;19921;-80
2022/03/30 07:29:12;;;;;;;;;;;6.90;99.90;;;;;;5027406;28;20016;-81
2022/03/30 07:31:38;;;;;;;;;;;6.90;99.90;;;;;;5029047;28;19996;-80
2022/03/30 07:34:04;;;;;;;;;;;6.90;99.90;;;;;;5015321;28;19943;-77
2022/03/30 07:36:29;;;;;;;;;;;6.90;99.90;;;;;;4998235;28;19928;-77
2022/03/30 07:38:55;;;;;;;;;;;6.80;99.90;;;;;;5014688;28;20030;-77
2022/03/30 07:41:21;;;;;;;;;;;6.80;99.90;;;;;;5026447;28;19921;-77
2022/03/30 07:43:46;;;;;;;;;;;6.80;99.90;;;;;;5031112;28;19965;-78
2022/03/30 07:46:13;;;;;;;;;;;6.80;99.90;;;;;;5031051;28;19925;-77
2022/03/30 07:48:39;;;;;;;;;;;6.80;99.90;;;;;;5032210;28;19947;-77
2022/03/30 07:51:04;;;;;;;;;;;6.90;99.90;;;;;;5031156;28;19921;-75
2022/03/30 07:53:30;;;;;;;;;;;6.90;99.90;;;;;;5030769;28;20011;-74
2022/03/30 07:55:56;;;;;;;;;;;7.00;99.90;;;;;;5021488;28;19925;-74
2022/03/30 07:58:21;;;;;;;;;;;7.00;99.90;;;;;;5019505;28;19921;-76
2022/03/30 08:00:47;;;;;;;;;;;7.10;99.90;;;;;;5031216;28;19927;-74
2022/03/30 08:03:13;;;;;;;;;;;7.20;99.90;;;;;;5009749;28;19991;-76
2022/03/30 08:05:38;;;;;;;;;;;7.20;99.90;;;;;;5023937;28;19921;-77
2022/03/30 08:08:06;;;;;;;;;;;7.30;99.90;;;;;;5029505;28;19929;-75
2022/03/30 08:10:33;;;;;;;;;;;7.40;99.90;;;;;;5024988;28;19921;-76
2022/03/30 08:12:58;;;;;;;;;;;7.40;99.90;;;;;;5012020;28;20335;-75
2022/03/30 08:15:24;;;;;;;;;;;7.30;99.90;;;;;;5011966;28;19964;-75
2022/03/30 08:17:51;;;;;;;;;;;7.40;99.90;;;;;;5013161;28;19960;-77
2022/03/30 08:23:02;;;;;;;;;;;7.30;99.90;;;;;;5031154;28;19928;-77
2022/03/30 08:25:27;;;;;;;;;;;7.20;99.90;;;;;;5029563;28;20263;-78
2022/03/30 08:27:53;;;;;;;;;;;7.20;99.90;;;;;;5030038;28;19947;-77
2022/03/30 08:30:19;;;;;;;;;;;7.30;99.90;;;;;;5031271;28;19944;-77
2022/03/30 08:32:44;;;;;;;;;;;7.30;99.90;;;;;;5014258;28;19921;-77
2022/03/30 08:35:12;;;;;;;;;;;7.40;99.90;;;;;;5030845;28;19927;-76
2022/03/30 08:37:38;;;;;;;;;;;7.50;99.90;;;;;;5015395;28;19925;-78
2022/03/30 08:40:04;;;;;;;;;;;7.60;99.90;;;;;;5015344;28;19922;-76
2022/03/30 08:42:30;;;;;;;;;;;7.60;99.90;;;;;;4998325;28;19985;-77
2022/03/30 08:44:56;;;;;;;;;;;7.60;99.90;;;;;;4999187;28;19921;-84
2022/03/30 08:47:21;;;;;;;;;;;7.70;99.90;;;;;;5015612;28;20378;-74
2022/03/30 08:49:50;;;;;;;;;;;7.70;99.90;;;;;;5016795;28;19927;-76
2022/03/30 08:52:16;;;;;;;;;;;7.80;99.90;;;;;;5022851;28;19921;-77
2022/03/30 08:54:47;;;;;;;;;;;7.80;99.90;;;;;;5032663;28;19959;-74
2022/03/30 08:57:13;;;;;;;;;;;7.90;99.90;;;;;;5034101;28;19988;-76
2022/03/30 08:59:39;;;;;;;;;;;7.90;99.90;;;;;;5018261;28;19947;-75
2022/03/30 09:02:04;;;;;;;;;;;8.00;99.90;;;;;;5017658;28;19924;-76
2022/03/30 09:04:30;;;;;;;;;;;8.00;99.90;;;;;;5034372;28;20289;-76
2022/03/30 09:06:57;;;;;;;;;;;8.00;99.90;;;;;;4999003;28;19921;-75
2022/03/30 09:09:41;;;;;;;;;;;8.00;99.90;;;;;;5028239;28;19925;-74
2022/03/30 09:12:10;;;;;;;;;;;8.00;99.90;;;;;;5025864;28;19941;-74
2022/03/30 09:14:39;;;;;;;;;;;8.10;99.90;;;;;;5008055;28;19921;-74
2022/03/30 09:17:08;;;;;;;;;;;8.20;99.90;;;;;;5035093;28;19928;-74
2022/03/30 09:19:36;;;;;;;;;;;8.40;99.90;;;;;;5017045;28;20383;-74
2022/03/30 09:22:03;;;;;;;;;;;8.50;99.90;;;;;;5017406;28;19921;-74
2022/03/30 09:24:33;;;;;;;;;;;8.60;99.90;;;;;;5036446;28;19921;-78
2022/03/30 09:26:59;;;;;;;;;;;8.70;99.90;;;;;;5036031;28;20038;-77
2022/03/30 09:29:26;;;;;;;;;;;8.90;99.90;;;;;;5016119;28;20412;-80
2022/03/30 09:31:52;;;;;;;;;;;9.10;99.90;;;;;;5032679;28;20450;-76
2022/03/30 09:34:19;;;;;;;;;;;9.10;99.90;;;;;;5017282;28;19925;-76
2022/03/30 09:36:46;;;;;;;;;;;9.10;99.90;;;;;;5033790;28;19928;-75
2022/03/30 09:39:31;;;;;;;;;;;9.00;99.90;;;;;;5033331;28;19921;-76
2022/03/30 09:41:59;;;;;;;;;;;9.10;99.90;;;;;;5016547;28;19925;-75
2022/03/30 09:44:25;;;;;;;;;;;9.20;99.90;;;;;;5033796;28;19928;-76
2022/03/30 09:46:58;;;;;;;;;;;9.30;99.90;;;;;;5032587;28;19921;-76
2022/03/30 09:49:51;;;;;;;;;;;9.30;99.90;;;;;;5016761;28;19971;-76
2022/03/30 09:52:19;;;;;;;;;;;9.30;99.90;;;;;;5030758;28;20285;-76
2022/03/30 09:54:44;;;;;;;;;;;9.30;99.90;;;;;;5033920;28;20255;-77
2022/03/30 09:57:14;;;;;;;;;;;9.30;99.90;;;;;;5033093;28;19932;-76
2022/03/30 09:59:55;;;;;;;;;;;9.40;99.90;;;;;;5033750;28;19955;-75
2022/03/30 10:02:21;;;;;;;;;;;9.40;99.90;;;;;;5033469;28;20285;-76
2022/03/30 10:04:46;;;;;;;;;;;9.40;99.90;;;;;;5033788;28;19921;-75
2022/03/30 10:07:12;;;;;;;;;;;9.70;99.90;;;;;;5033508;28;20305;-75
2022/03/30 10:09:39;;;;;;;;;;;9.80;99.90;;;;;;5033357;28;19929;-76
2022/03/30 10:12:05;;;;;;;;;;;9.80;99.90;;;;;;5032468;28;20365;-76
2022/03/30 10:14:33;;;;;;;;;;;9.90;99.90;;;;;;5033196;28;19928;-75
2022/03/30 10:16:59;;;;;;;;;;;9.80;99.90;;;;;;5033169;28;20362;-75
2022/03/30 10:19:24;;;;;;;;;;;9.60;99.90;;;;;;5013102;28;19922;-75
2022/03/30 10:22:09;;;;;;;;;;;9.60;99.90;;;;;;5013209;28;19921;-79
2022/03/30 10:24:41;;;;;;;;;;;9.40;99.90;;;;;;5019979;28;19966;-75
2022/03/30 10:27:10;;;;;;;;;;;9.50;99.90;;;;;;5033277;28;19921;-75
2022/03/30 10:29:36;;;;;;;;;;;9.40;99.90;;;;;;5032978;28;20012;-76
2022/03/30 10:32:09;;;;;;;;;;;9.30;99.90;;;;;;5032558;28;20413;-76
2022/03/30 10:34:39;;;;;;;;;;;9.40;99.90;;;;;;5032661;28;19972;-76
2022/03/30 10:37:09;;;;;;;;;;;9.40;99.90;;;;;;5032450;28;19921;-77
2022/03/30 10:39:34;;;;;;;;;;;9.40;99.90;;;;;;5032841;28;19925;-76
2022/03/30 10:42:07;;;;;;;;;;;9.40;99.90;;;;;;5015949;28;20358;-77
2022/03/30 10:44:36;;;;;;;;;;;9.50;99.90;;;;;;5032846;28;20016;-76
2022/03/30 10:47:18;;;;;;;;;;;9.40;99.90;;;;;;5032681;28;19925;-77
2022/03/30 10:49:57;;;;;;;;;;;9.40;99.90;;;;;;5032030;28;20417;-78
2022/03/30 10:52:24;;;;;;;;;;;9.60;99.90;;;;;;5033850;28;19936;-78
2022/03/30 10:54:55;;;;;;;;;;;9.60;99.90;;;;;;5032214;28;19924;-78
2022/03/30 10:57:39;;;;;;;;;;;9.70;99.90;;;;;;5032473;28;19928;-78
2022/03/30 11:00:06;;;;;;;;;;;9.90;99.90;;;;;;5032489;28;19965;-77
2022/03/30 11:02:41;;;;;;;;;;;10.10;99.90;;;;;;5031747;28;19924;-77
2022/03/30 11:05:13;;;;;;;;;;;10.10;99.90;;;;;;5015638;28;20337;-77
2022/03/30 11:07:39;;;;;;;;;;;10.30;99.90;;;;;;5032436;28;19921;-77
2022/03/30 11:10:15;;;;;;;;;;;10.40;99.90;;;;;;5031996;28;19987;-77
2022/03/30 11:12:57;;;;;;;;;;;10.50;99.90;;;;;;5032989;28;19975;-77
2022/03/30 11:15:22;;;;;;;;;;;10.50;99.90;;;;;;5032300;28;19921;-77
2022/03/30 11:17:48;;;;;;;;;;;10.50;99.90;;;;;;5031931;28;20059;-78
2022/03/30 11:20:16;;;;;;;;;;;10.50;99.90;;;;;;5031719;28;20117;-77
2022/03/30 11:22:44;;;;;;;;;;;10.50;99.90;;;;;;5015561;28;19921;-77
2022/03/30 11:25:10;;;;;;;;;;;10.60;99.90;;;;;;5011847;28;19980;-77
2022/03/30 11:27:36;;;;;;;;;;;10.60;99.90;;;;;;5012426;28;19971;-77
2022/03/30 11:30:09;;;;;;;;;;;10.60;99.90;;;;;;5011708;28;20401;-77
2022/03/30 11:32:37;;;;;;;;;;;10.50;99.90;;;;;;5011530;28;19964;-77
2022/03/30 11:35:07;;;;;;;;;;;10.50;99.50;;;;;;5027418;28;20309;-77
2022/03/30 11:37:35;;;;;;;;;;;10.50;99.90;;;;;;5015212;28;19974;-78
2022/03/30 11:40:01;;;;;;;;;;;10.40;99.90;;;;;;5031290;28;19921;-77
2022/03/30 11:42:26;;;;;;;;;;;10.50;99.90;;;;;;5031889;28;19921;-77
2022/03/30 11:47:36;;;;;;;;;;;10.70;99.90;;;;;;5030955;28;19928;-77
2022/03/30 11:50:03;;;;;;;;;;;10.60;98.40;;;;;;5031414;28;19925;-77
2022/03/30 11:52:29;;;;;;;;;;;10.60;99.00;;;;;;5031711;28;19921;-77
2022/03/30 11:54:55;;;;;;;;;;;10.60;99.30;;;;;;5031295;28;20357;-77
2022/03/30 11:57:21;;;;;;;;;;;10.70;98.80;;;;;;5014364;28;20376;-77
2022/03/30 11:59:57;;;;;;;;;;;10.60;97.90;;;;;;5030355;28;20286;-77
2022/03/30 12:02:29;;;;;;;;;;;10.70;97.90;;;;;;5030920;28;19929;-77
2022/03/30 12:04:56;;;;;;;;;;;10.80;97.00;;;;;;5031203;28;19925;-77
2022/03/30 12:07:22;;;;;;;;;;;11.20;97.30;;;;;;5031398;28;20016;-77
2022/03/30 12:09:54;;;;;;;;;;;11.70;96.60;;;;;;5031847;28;20450;-77
2022/03/30 12:12:31;;;;;;;;;;;12.00;93.70;;;;;;5035630;28;19935;-77
2022/03/30 12:14:57;;;;;;;;;;;12.30;93.70;;;;;;5036439;28;19944;-77
2022/03/30 12:17:26;;;;;;;;;;;12.20;91.70;;;;;;5034940;28;19925;-77
2022/03/30 12:19:52;;;;;;;;;;;12.10;91.20;;;;;;5036588;28;19921;-77
2022/03/30 12:22:18;;;;;;;;;;;12.10;90.00;;;;;;5035159;28;19925;-78
2022/03/30 12:24:44;;;;;;;;;;;12.40;89.80;;;;;;5034496;28;19927;-77
2022/03/30 12:27:10;;;;;;;;;;;12.70;90.50;;;;;;5035234;28;19925;-77
2022/03/30 12:29:37;;;;;;;;;;;12.70;84.60;;;;;;5035154;28;19925;-77
2022/03/30 12:32:03;;;;;;;;;;;12.90;85.40;;;;;;5034463;28;19924;-78
2022/03/30 12:34:34;;;;;;;;;;;12.60;82.00;;;;;;5035376;28;19925;-77
2022/03/30 12:37:01;;;;;;;;;;;12.60;82.00;;;;;;5034600;28;20373;-77
2022/03/30 12:39:35;;;;;;;;;;;12.50;82.70;;;;;;5034961;28;19968;-77
2022/03/30 12:42:04;;;;;;;;;;;12.20;79.80;;;;;;5036482;28;19921;-78
2022/03/30 12:44:32;;;;;;;;;;;11.80;81.80;;;;;;5035234;28;19987;-77
2022/03/30 12:47:01;;;;;;;;;;;11.70;83.00;;;;;;5018211;28;19924;-77
2022/03/30 12:49:34;;;;;;;;;;;11.30;83.40;;;;;;5017647;28;19928;-77
2022/03/30 12:52:07;;;;;;;;;;;11.10;84.40;;;;;;5035193;28;19921;-77
2022/03/30 12:54:32;;;;;;;;;;;11.10;86.00;;;;;;5034618;28;19925;-77
2022/03/30 12:56:58;;;;;;;;;;;11.10;87.80;;;;;;5035008;28;20258;-77
2022/03/30 12:59:25;;;;;;;;;;;11.00;86.20;;;;;;5034510;28;19983;-77
2022/03/30 13:01:51;;;;;;;;;;;10.60;86.90;;;;;;5034508;28;19921;-77
2022/03/30 13:04:17;;;;;;;;;;;10.50;89.50;;;;;;5034552;28;19921;-77
2022/03/30 13:07:02;;;;;;;;;;;10.30;89.10;;;;;;5034813;28;19932;-77
2022/03/30 13:09:28;;;;;;;;;;;10.10;90.50;;;;;;5033203;28;20062;-77
2022/03/30 13:11:53;;;;;;;;;;;9.90;91.00;;;;;;5035814;28;20023;-78
2022/03/30 13:14:19;;;;;;;;;;;9.90;92.20;;;;;;5034404;28;19921;-78
2022/03/30 13:17:09;;;;;;;;;;;9.90;92.30;;;;;;5017636;28;20293;-77
2022/03/30 13:19:35;;;;;;;;;;;9.80;91.90;;;;;;5034308;28;19928;-77
2022/03/30 13:22:04;;;;;;;;;;;9.80;92.70;;;;;;5034053;28;19921;-77
2022/03/30 13:24:32;;;;;;;;;;;9.80;92.40;;;;;;5034677;28;19928;-77
2022/03/30 13:27:03;;;;;;;;;;;9.90;92.40;;;;;;5018306;28;19940;-78
2022/03/30 13:29:29;;;;;;;;;;;9.80;91.90;;;;;;5033490;28;20393;-78
2022/03/30 13:31:54;;;;;;;;;;;9.80;92.40;;;;;;5033329;28;20026;-77
2022/03/30 13:34:23;;;;;;;;;;;9.80;91.90;;;;;;5017740;28;20007;-77
2022/03/30 13:36:48;;;;;;;;;;;9.90;91.90;;;;;;5033890;28;19925;-77
2022/03/30 13:39:18;;;;;;;;;;;10.00;93.00;;;;;;5034441;28;19928;-77
2022/03/30 13:41:44;;;;;;;;;;;10.20;92.50;;;;;;5035007;28;20021;-78
2022/03/30 13:44:10;;;;;;;;;;;10.40;91.90;;;;;;5034307;28;19927;-77
2022/03/30 13:46:36;;;;;;;;;;;10.50;91.40;;;;;;5033453;28;19925;-78
2022/03/30 13:49:03;;;;;;;;;;;10.60;90.20;;;;;;5034882;28;19921;-77
2022/03/30 13:51:29;;;;;;;;;;;10.60;90.00;;;;;;5033787;28;19925;-77
2022/03/30 13:53:55;;;;;;;;;;;10.60;88.90;;;;;;5033079;28;19979;-77
2022/03/30 13:56:21;;;;;;;;;;;10.80;90.30;;;;;;5033762;28;19925;-77
2022/03/30 13:58:50;;;;;;;;;;;10.90;89.50;;;;;;5033833;28;19925;-77
2022/03/30 14:01:17;;;;;;;;;;;10.90;89.50;;;;;;5016740;28;19928;-77
2022/03/30 14:03:43;;;;;;;;;;;10.90;87.60;;;;;;5033308;28;20003;-77
2022/03/30 14:06:08;;;;;;;;;;;10.90;86.50;;;;;;5033664;28;20055;-78
2022/03/30 14:08:34;;;;;;;;;;;10.70;84.80;;;;;;5016372;28;19921;-77
2022/03/30 14:11:00;;;;;;;;;;;10.60;85.60;;;;;;5033447;28;19968;-77
2022/03/30 14:13:25;;;;;;;;;;;10.60;85.90;;;;;;5033132;28;19987;-77
2022/03/30 14:15:51;;;;;;;;;;;10.40;85.00;;;;;;5032398;28;20377;-77
2022/03/30 14:18:17;;;;;;;;;;;10.30;85.80;;;;;;5033444;28;20015;-77
2022/03/30 14:20:43;;;;;;;;;;;10.20;84.30;;;;;;5033568;28;20365;-77
2022/03/30 14:23:12;;;;;;;;;;;10.00;86.20;;;;;;5032865;28;19921;-78
2022/03/30 14:25:38;;;;;;;;;;;9.80;87.50;;;;;;5016973;28;19921;-78
2022/03/30 14:28:05;;;;;;;;;;;9.70;88.10;;;;;;5032866;28;19979;-78
2022/03/30 14:30:31;;;;;;;;;;;9.60;89.90;;;;;;5031943;28;19921;-77
2022/03/30 14:32:58;;;;;;;;;;;9.60;89.70;;;;;;5031781;28;19921;-77
2022/03/30 14:35:24;;;;;;;;;;;9.60;90.10;;;;;;5034215;28;19938;-77
2022/03/30 14:37:50;;;;;;;;;;;9.50;87.90;;;;;;5016252;28;20008;-78
2022/03/30 14:40:15;;;;;;;;;;;9.40;88.60;;;;;;5032681;28;20036;-78